createdAt,value
2018-12-20T00:01:23.266Z,19.15
2018-12-20T00:03:50.900Z,18.57
2018-12-20T00:06:18.482Z,18.30
2018-12-20T00:08:46.104Z,19.23
2018-12-20T00:11:13.638Z,19.17
2018-12-20T00:13:41.169Z,18.37
2018-12-20T00:16:08.794Z,19.07
2018-12-20T00:18:36.371Z,22.20
2018-12-20T00:21:03.893Z,18.65
2018-12-20T00:23:31.379Z,21.20
2018-12-20T00:25:59.017Z,19.15
2018-12-20T00:28:26.641Z,18.37
2018-12-20T00:30:54.242Z,21.45
2018-12-20T00:33:21.901Z,18.85
2018-12-20T00:35:49.562Z,22.60
2018-12-20T00:38:17.216Z,21.02
2018-12-20T00:40:44.721Z,18.92
2018-12-20T00:43:12.327Z,19.90
2018-12-20T00:45:39.858Z,19.27
2018-12-20T00:48:07.477Z,18.95
2018-12-20T00:50:35.070Z,18.00
2018-12-20T00:53:02.565Z,19.48
2018-12-20T00:55:30.164Z,16.05
2018-12-20T00:57:57.703Z,16.20
2018-12-20T01:00:25.335Z,17.70
2018-12-20T01:02:55.356Z,17.27
2018-12-20T01:05:22.480Z,17.80
2018-12-20T01:07:50.000Z,18.62
2018-12-20T01:10:17.794Z,17.92
2018-12-20T01:12:45.529Z,18.77
2018-12-20T01:15:13.166Z,17.67
2018-12-20T01:17:40.749Z,16.35
2018-12-20T01:20:08.866Z,16.65
2018-12-20T01:22:36.851Z,17.85
2018-12-20T01:25:04.603Z,17.17
2018-12-20T01:27:32.225Z,16.82
2018-12-20T01:30:00.039Z,18.77
2018-12-20T01:32:27.640Z,19.67
2018-12-20T01:34:55.294Z,17.40
2018-12-20T01:37:22.874Z,18.37
2018-12-20T01:39:50.373Z,19.15
2018-12-20T01:42:17.934Z,18.82
2018-12-20T01:44:53.331Z,17.37
2018-12-20T01:47:15.188Z,17.45
2018-12-20T01:49:42.938Z,19.25
2018-12-20T01:52:10.562Z,20.17
2018-12-20T01:54:38.052Z,19.82
2018-12-20T01:57:05.731Z,19.85
2018-12-20T01:59:33.374Z,19.00
2018-12-20T02:02:01.150Z,20.00
2018-12-20T02:04:28.968Z,20.77
2018-12-20T02:06:56.550Z,19.37
2018-12-20T02:09:24.223Z,21.02
2018-12-20T02:11:51.932Z,18.15
2018-12-20T02:14:19.538Z,19.10
2018-12-20T02:16:47.140Z,18.62
2018-12-20T02:19:14.734Z,19.60
2018-12-20T02:21:42.283Z,20.05
2018-12-20T02:24:09.863Z,18.02
2018-12-20T02:26:37.834Z,17.27
2018-12-20T02:29:05.454Z,18.27
2018-12-20T02:31:33.397Z,18.90
2018-12-20T02:34:01.382Z,17.48
2018-12-20T02:36:29.232Z,19.02
2018-12-20T02:38:56.769Z,17.48
2018-12-20T02:41:24.321Z,18.82
2018-12-20T02:43:52.945Z,17.92
2018-12-20T02:46:20.533Z,16.73
2018-12-20T02:48:48.024Z,19.15
2018-12-20T02:51:15.566Z,17.00
2018-12-20T02:53:43.361Z,18.57
2018-12-20T02:56:10.888Z,18.17
2018-12-20T02:58:38.629Z,17.27
2018-12-20T03:01:06.534Z,18.82
2018-12-20T03:03:34.247Z,17.27
2018-12-20T03:06:02.126Z,18.05
2018-12-20T03:08:29.936Z,16.93
2018-12-20T03:10:57.924Z,18.30
2018-12-20T03:13:25.771Z,17.00
2018-12-20T03:15:53.347Z,18.98
2018-12-20T03:20:55.078Z,18.23
2018-12-20T03:23:22.697Z,16.70
2018-12-20T03:25:50.407Z,17.10
2018-12-20T03:28:18.235Z,17.92
2018-12-20T03:30:45.978Z,17.60
2018-12-20T03:33:13.581Z,16.60
2018-12-20T03:35:41.097Z,16.10
2018-12-20T03:38:08.811Z,16.48
2018-12-20T03:40:36.475Z,15.38
2018-12-20T03:43:04.220Z,16.57
2018-12-20T03:45:32.107Z,16.25
2018-12-20T03:47:59.756Z,15.83
2018-12-20T03:50:27.620Z,15.40
2018-12-20T03:52:55.259Z,16.30
2018-12-20T03:55:23.334Z,17.02
2018-12-20T03:57:51.092Z,16.10
2018-12-20T04:00:18.762Z,16.75
2018-12-20T04:02:46.399Z,15.63
2018-12-20T04:05:13.920Z,16.65
2018-12-20T04:07:41.635Z,16.73
2018-12-20T04:10:09.507Z,18.20
2018-12-20T04:12:37.413Z,15.78
2018-12-20T04:15:05.212Z,15.90
2018-12-20T04:17:33.044Z,15.93
2018-12-20T04:20:00.719Z,16.02
2018-12-20T04:22:28.361Z,15.55
2018-12-20T04:24:55.905Z,15.68
2018-12-20T04:27:23.495Z,15.98
2018-12-20T04:29:51.081Z,15.40
2018-12-20T04:32:18.624Z,15.78
2018-12-20T04:34:46.217Z,16.15
2018-12-20T04:37:14.259Z,16.02
2018-12-20T04:39:42.118Z,16.37
2018-12-20T04:42:09.714Z,16.17
2018-12-20T04:44:37.419Z,16.57
2018-12-20T04:47:05.061Z,17.05
2018-12-20T04:49:32.720Z,17.80
2018-12-20T04:52:00.827Z,17.05
2018-12-20T04:54:28.676Z,15.98
2018-12-20T04:56:56.465Z,17.10
2018-12-20T04:59:24.145Z,17.42
2018-12-20T05:01:52.125Z,17.42
2018-12-20T05:04:20.091Z,16.52
2018-12-20T05:06:47.923Z,17.15
2018-12-20T05:09:15.609Z,17.65
2018-12-20T05:11:43.355Z,16.00
2018-12-20T05:14:11.069Z,18.40
2018-12-20T05:16:38.557Z,18.85
2018-12-20T05:19:06.215Z,17.60
2018-12-20T05:21:33.779Z,17.65
2018-12-20T05:24:01.407Z,16.85
2018-12-20T05:26:28.984Z,16.62
2018-12-20T05:28:56.531Z,18.10
2018-12-20T05:31:24.049Z,18.37
2018-12-20T05:33:51.620Z,17.07
2018-12-20T05:36:19.171Z,16.25
2018-12-20T05:38:46.794Z,15.95
2018-12-20T05:41:14.623Z,15.60
2018-12-20T05:43:42.390Z,16.73
2018-12-20T05:46:10.145Z,17.27
2018-12-20T05:48:37.691Z,16.27
2018-12-20T05:51:05.470Z,16.02
2018-12-20T05:53:33.118Z,15.90
2018-12-20T05:56:00.632Z,15.90
2018-12-20T05:58:28.243Z,15.78
2018-12-20T06:00:55.954Z,16.32
2018-12-20T06:03:23.805Z,16.65
2018-12-20T06:05:51.395Z,16.97
2018-12-20T06:08:19.259Z,15.85
2018-12-20T06:10:46.930Z,16.00
2018-12-20T06:13:14.571Z,16.20
2018-12-20T06:15:42.363Z,17.37
2018-12-20T06:18:10.327Z,17.60
2018-12-20T06:20:38.013Z,17.23
2018-12-20T06:23:05.632Z,15.85
2018-12-20T06:25:33.979Z,16.80
2018-12-20T06:28:01.589Z,17.15
2018-12-20T06:30:29.092Z,16.62
2018-12-20T06:32:56.632Z,15.50
2018-12-20T06:35:24.112Z,16.80
2018-12-20T06:37:51.618Z,17.25
2018-12-20T06:40:19.163Z,17.55
2018-12-20T06:42:46.687Z,15.03
2018-12-20T06:45:14.199Z,16.37
2018-12-20T06:47:41.736Z,16.07
2018-12-20T06:50:10.271Z,16.62
2018-12-20T06:52:38.122Z,15.45
2018-12-20T06:55:05.707Z,14.98
2018-12-20T06:57:33.381Z,17.07
2018-12-20T07:00:01.188Z,16.20
2018-12-20T07:02:28.788Z,15.55
2018-12-20T07:04:56.311Z,17.30
2018-12-20T07:07:23.939Z,15.72
2018-12-20T07:09:51.442Z,14.90
2018-12-20T07:12:18.998Z,15.20
2018-12-20T07:14:46.548Z,13.72
2018-12-20T07:17:14.074Z,14.30
2018-12-20T07:19:41.803Z,15.05
2018-12-20T07:22:09.331Z,15.60
2018-12-20T07:24:36.883Z,14.30
2018-12-20T07:27:04.475Z,15.20
2018-12-20T07:29:32.022Z,16.97
2018-12-20T07:31:59.550Z,14.30
2018-12-20T07:34:27.125Z,15.32
2018-12-20T07:36:54.664Z,16.70
2018-12-20T07:39:22.220Z,16.00
2018-12-20T07:41:49.735Z,15.85
2018-12-20T07:44:17.291Z,17.10
2018-12-20T07:46:44.813Z,15.72
2018-12-20T07:49:12.308Z,14.00
2018-12-20T07:51:39.867Z,16.32
2018-12-20T07:54:07.407Z,16.20
2018-12-20T07:56:34.979Z,14.90
2018-12-20T07:59:02.612Z,14.65
2018-12-20T08:01:30.242Z,14.85
2018-12-20T08:03:57.748Z,15.00
2018-12-20T08:06:25.317Z,14.10
2018-12-20T08:08:52.881Z,15.40
2018-12-20T08:11:20.456Z,14.90
2018-12-20T08:13:47.923Z,13.43
2018-12-20T08:16:15.472Z,14.25
2018-12-20T08:18:43.056Z,13.85
2018-12-20T08:21:10.600Z,14.00
2018-12-20T08:23:38.079Z,14.50
2018-12-20T08:26:05.595Z,15.15
2018-12-20T08:28:33.127Z,13.88
2018-12-20T08:31:00.684Z,13.05
2018-12-20T08:33:28.225Z,14.03
2018-12-20T08:35:55.777Z,14.73
2018-12-20T08:38:23.302Z,13.38
2018-12-20T08:40:50.828Z,14.35
2018-12-20T08:43:18.337Z,14.18
2018-12-20T08:45:45.851Z,14.50
2018-12-20T08:48:13.395Z,14.68
2018-12-20T08:50:40.902Z,14.68
2018-12-20T08:53:08.446Z,13.30
2018-12-20T08:55:35.981Z,13.90
2018-12-20T08:58:03.461Z,12.80
2018-12-20T09:00:30.968Z,13.83
2018-12-20T09:02:58.499Z,12.20
2018-12-20T09:05:26.115Z,12.18
2018-12-20T09:07:53.619Z,12.45
2018-12-20T09:10:23.122Z,12.78
2018-12-20T09:12:50.616Z,12.30
2018-12-20T09:15:18.180Z,12.80
2018-12-20T09:17:45.720Z,11.35
2018-12-20T09:20:13.343Z,11.88
2018-12-20T09:22:41.776Z,12.43
2018-12-20T09:25:09.292Z,13.75
2018-12-20T09:27:36.784Z,13.38
2018-12-20T09:30:06.179Z,12.30
2018-12-20T09:32:33.737Z,12.05
2018-12-20T09:35:01.223Z,11.80
2018-12-20T09:37:29.133Z,10.45
2018-12-20T09:39:56.719Z,12.37
2018-12-20T09:42:24.430Z,10.40
2018-12-20T09:44:51.928Z,11.45
2018-12-20T09:47:25.217Z,10.95
2018-12-20T09:49:52.681Z,11.38
2018-12-20T09:52:20.212Z,12.05
2018-12-20T09:54:47.719Z,11.90
2018-12-20T09:57:15.260Z,12.00
2018-12-20T09:59:42.766Z,10.70
2018-12-20T10:02:10.264Z,9.65
2018-12-20T10:04:37.808Z,10.00
2018-12-20T10:07:05.797Z,10.03
2018-12-20T10:09:33.324Z,9.28
2018-12-20T10:12:00.798Z,9.35
2018-12-20T10:14:28.346Z,8.35
2018-12-20T10:16:55.913Z,8.58
2018-12-20T10:19:23.540Z,8.98
2018-12-20T10:21:51.049Z,8.95
2018-12-20T10:24:18.580Z,12.85
2018-12-20T10:26:46.124Z,11.25
2018-12-20T10:29:13.721Z,12.50
2018-12-20T10:31:41.233Z,9.75
2018-12-20T10:34:08.712Z,9.35
2018-12-20T10:36:36.363Z,9.30
2018-12-20T10:39:06.310Z,7.28
2018-12-20T10:41:33.844Z,6.55
2018-12-20T10:44:01.330Z,6.97
2018-12-20T10:46:28.968Z,5.95
2018-12-20T10:48:56.479Z,6.37
2018-12-20T10:51:23.996Z,6.80
2018-12-20T10:53:51.499Z,7.10
2018-12-20T10:56:18.996Z,6.53
2018-12-20T10:58:46.511Z,5.80
2018-12-20T11:04:27.515Z,5.30
2018-12-20T11:07:00.773Z,4.65
2018-12-20T11:09:34.039Z,5.60
2018-12-20T11:12:07.442Z,5.80
2018-12-20T11:14:35.164Z,5.10
2018-12-20T11:17:02.692Z,5.37
2018-12-20T11:19:31.219Z,6.65
2018-12-20T11:21:58.758Z,6.53
2018-12-20T11:24:26.284Z,5.60
2018-12-20T11:26:53.807Z,5.70
2018-12-20T11:29:21.312Z,5.37
2018-12-20T11:31:48.860Z,5.28
2018-12-20T11:34:16.371Z,5.28
2018-12-20T11:36:43.913Z,5.03
2018-12-20T11:39:11.416Z,5.00
2018-12-20T11:41:39.769Z,5.28
2018-12-20T11:44:07.433Z,5.62
2018-12-20T11:46:35.015Z,5.90
2018-12-20T11:49:02.481Z,4.97
2018-12-20T11:51:30.065Z,4.92
2018-12-20T11:53:57.754Z,4.72
2018-12-20T11:56:25.283Z,4.35
2018-12-20T11:58:52.828Z,5.72
2018-12-20T12:01:20.304Z,4.22
2018-12-20T12:03:47.810Z,5.37
2018-12-20T12:06:15.376Z,4.12
2018-12-20T12:08:42.973Z,4.45
2018-12-20T12:11:10.604Z,3.75
2018-12-20T12:13:38.189Z,3.75
2018-12-20T12:16:05.716Z,4.00
2018-12-20T12:18:33.205Z,3.20
2018-12-20T12:21:00.715Z,3.30
2018-12-20T12:23:28.272Z,2.25
2018-12-20T12:25:55.964Z,1.67
2018-12-20T12:28:23.502Z,1.55
2018-12-20T12:30:51.063Z,1.47
2018-12-20T12:33:18.690Z,2.00
2018-12-20T12:35:46.160Z,1.40
2018-12-20T12:38:13.697Z,1.62
2018-12-20T12:40:41.249Z,1.40
2018-12-20T12:43:08.738Z,1.42
2018-12-20T12:45:36.318Z,1.52
2018-12-20T12:48:04.089Z,1.40
2018-12-20T12:50:31.742Z,2.12
2018-12-20T12:52:59.341Z,1.60
2018-12-20T12:55:26.962Z,1.62
2018-12-20T12:57:54.521Z,1.65
2018-12-20T13:00:22.680Z,1.32
2018-12-20T13:02:50.187Z,1.57
2018-12-20T13:05:17.839Z,1.70
2018-12-20T13:07:45.340Z,1.27
2018-12-20T13:10:12.861Z,1.60
2018-12-20T13:12:40.394Z,1.52
2018-12-20T13:15:10.673Z,1.37
2018-12-20T13:17:38.301Z,1.15
2018-12-20T13:20:08.325Z,1.40
2018-12-20T13:22:35.874Z,1.45
2018-12-20T13:25:03.758Z,1.55
2018-12-20T13:27:31.540Z,1.50
2018-12-20T13:29:59.019Z,1.90
2018-12-20T13:32:26.543Z,1.90
2018-12-20T13:34:54.038Z,1.80
2018-12-20T13:37:21.624Z,1.70
2018-12-20T13:39:49.344Z,1.72
2018-12-20T13:42:16.973Z,1.90
2018-12-20T13:44:44.442Z,1.70
2018-12-20T13:47:11.935Z,2.00
2018-12-20T13:49:39.467Z,1.65
2018-12-20T13:52:07.001Z,2.33
2018-12-20T13:54:34.522Z,1.82
2018-12-20T13:57:02.122Z,2.25
2018-12-20T13:59:29.700Z,2.52
2018-12-20T14:01:57.434Z,1.90
2018-12-20T14:04:24.896Z,1.92
2018-12-20T14:06:52.429Z,2.02
2018-12-20T14:09:21.064Z,1.90
2018-12-20T14:11:48.603Z,2.55
2018-12-20T14:14:16.228Z,2.22
2018-12-20T14:16:43.709Z,2.08
2018-12-20T14:19:11.229Z,1.90
2018-12-20T14:21:38.840Z,2.60
2018-12-20T14:24:06.380Z,2.12
2018-12-20T14:26:33.883Z,2.37
2018-12-20T14:29:01.398Z,2.20
2018-12-20T14:31:28.937Z,2.27
2018-12-20T14:33:56.516Z,2.20
2018-12-20T14:36:24.061Z,2.00
2018-12-20T14:38:51.664Z,2.42
2018-12-20T14:41:19.219Z,2.40
2018-12-20T14:43:46.710Z,2.47
2018-12-20T14:46:14.238Z,2.40
2018-12-20T14:48:41.891Z,2.00
2018-12-20T14:51:09.390Z,2.30
2018-12-20T14:53:36.951Z,2.42
2018-12-20T14:56:04.555Z,2.50
2018-12-20T14:58:32.112Z,2.02
2018-12-20T15:00:59.655Z,1.90
2018-12-20T15:03:27.178Z,1.87
2018-12-20T15:05:54.712Z,2.70
2018-12-20T15:08:22.182Z,2.00
2018-12-20T15:10:49.886Z,2.20
2018-12-20T15:13:17.431Z,2.15
2018-12-20T15:15:44.945Z,2.20
2018-12-20T15:18:12.435Z,2.10
2018-12-20T15:20:40.672Z,2.00
2018-12-20T15:23:09.933Z,2.15
2018-12-20T15:25:37.464Z,2.80
2018-12-20T15:28:05.083Z,2.90
2018-12-20T15:30:32.631Z,2.80
2018-12-20T15:33:00.090Z,2.70
2018-12-20T15:35:27.683Z,2.90
2018-12-20T15:37:57.183Z,2.40
2018-12-20T15:40:24.802Z,2.35
2018-12-20T15:42:52.367Z,2.00
2018-12-20T15:45:19.889Z,2.50
2018-12-20T15:47:47.419Z,2.40
2018-12-20T15:50:14.900Z,2.55
2018-12-20T15:52:42.507Z,11.38
2018-12-20T15:55:09.995Z,3.40
2018-12-20T15:57:37.601Z,2.83
2018-12-20T16:00:07.811Z,3.30
2018-12-20T16:02:35.378Z,3.30
2018-12-20T16:05:02.982Z,2.77
2018-12-20T16:07:30.493Z,3.55
2018-12-20T16:09:58.944Z,3.08
2018-12-20T16:12:26.947Z,3.40
2018-12-20T16:14:54.530Z,3.60
2018-12-20T16:17:22.137Z,3.17
2018-12-20T16:19:50.281Z,3.12
2018-12-20T16:22:18.835Z,3.40
2018-12-20T16:24:46.387Z,3.55
2018-12-20T16:27:14.448Z,3.92
2018-12-20T16:29:42.895Z,3.00
2018-12-20T16:32:10.431Z,4.95
2018-12-20T16:34:38.004Z,3.15
2018-12-20T16:37:05.817Z,3.05
2018-12-20T16:39:33.386Z,3.12
2018-12-20T16:42:00.991Z,3.40
2018-12-20T16:44:28.484Z,3.87
2018-12-20T16:46:55.974Z,3.22
2018-12-20T16:49:23.527Z,3.25
2018-12-20T16:51:51.012Z,4.42
2018-12-20T16:54:18.517Z,2.90
2018-12-20T16:56:46.130Z,3.47
2018-12-20T16:59:13.614Z,3.50
2018-12-20T17:01:43.094Z,3.17
2018-12-20T17:04:10.586Z,3.87
2018-12-20T17:06:38.063Z,3.90
2018-12-20T17:09:07.075Z,3.67
2018-12-20T17:11:34.624Z,3.67
2018-12-20T17:14:02.282Z,3.50
2018-12-20T17:16:29.783Z,3.47
2018-12-20T17:18:57.263Z,3.05
2018-12-20T17:21:24.788Z,2.80
2018-12-20T17:23:52.335Z,3.50
2018-12-20T17:26:19.889Z,3.47
2018-12-20T17:28:47.399Z,3.30
2018-12-20T17:31:15.091Z,3.50
2018-12-20T17:33:42.742Z,3.55
2018-12-20T17:36:10.458Z,3.40
2018-12-20T17:38:38.069Z,4.20
2018-12-20T17:41:05.699Z,3.50
2018-12-20T17:43:33.373Z,3.12
2018-12-20T17:46:01.122Z,3.70
2018-12-20T17:48:29.390Z,3.80
2018-12-20T17:50:57.375Z,4.00
2018-12-20T17:53:25.253Z,8.00
2018-12-20T17:55:52.906Z,5.50
2018-12-20T17:58:20.725Z,4.65
2018-12-20T18:03:25.998Z,4.62
2018-12-20T18:05:53.595Z,4.33
2018-12-20T18:08:21.234Z,3.80
2018-12-20T18:10:49.389Z,3.40
2018-12-20T18:13:16.921Z,3.00
2018-12-20T18:15:44.484Z,2.90
2018-12-20T18:18:12.084Z,3.30
2018-12-20T18:20:39.949Z,3.37
2018-12-20T18:23:07.510Z,3.42
2018-12-20T18:25:35.089Z,2.98
2018-12-20T18:28:02.631Z,3.02
2018-12-20T18:30:30.191Z,2.98
2018-12-20T18:32:57.695Z,3.70
2018-12-20T18:35:25.301Z,3.27
2018-12-20T18:37:52.867Z,2.90
2018-12-20T18:40:20.388Z,3.33
2018-12-20T18:42:48.006Z,4.58
2018-12-20T18:45:16.512Z,3.50
2018-12-20T18:47:44.041Z,8.00
2018-12-20T18:50:11.638Z,4.97
2018-12-20T18:52:39.164Z,4.00
2018-12-20T18:55:07.358Z,3.77
2018-12-20T18:57:34.865Z,3.60
2018-12-20T19:00:02.652Z,4.40
2018-12-20T19:02:30.285Z,3.50
2018-12-20T19:04:57.820Z,3.55
2018-12-20T19:07:25.331Z,4.10
2018-12-20T19:09:52.917Z,4.10
2018-12-20T19:12:20.494Z,4.50
2018-12-20T19:14:48.841Z,4.15
2018-12-20T19:17:16.445Z,4.12
2018-12-20T19:19:46.028Z,4.12
2018-12-20T19:22:13.804Z,4.87
2018-12-20T19:24:41.411Z,4.15
2018-12-20T19:27:08.933Z,4.30
2018-12-20T19:29:36.563Z,4.85
2018-12-20T19:32:04.120Z,4.60
2018-12-20T19:34:31.676Z,4.03
2018-12-20T19:36:59.272Z,4.12
2018-12-20T19:39:26.801Z,4.90
2018-12-20T19:41:56.257Z,4.12
2018-12-20T19:44:23.903Z,4.40
2018-12-20T19:46:51.456Z,4.58
2018-12-20T19:49:19.057Z,4.72
2018-12-20T19:51:46.588Z,3.80
2018-12-20T19:54:14.261Z,4.40
2018-12-20T19:56:41.808Z,3.90
2018-12-20T19:59:09.308Z,4.33
2018-12-20T20:01:36.886Z,4.30
2018-12-20T20:04:04.405Z,4.47
2018-12-20T20:06:31.983Z,5.40
2018-12-20T20:08:59.844Z,6.65
2018-12-20T20:11:27.412Z,5.15
2018-12-20T20:13:54.910Z,4.05
2018-12-20T20:16:22.508Z,4.15
2018-12-20T20:18:50.163Z,4.20
2018-12-20T20:21:17.755Z,4.28
2018-12-20T20:23:45.421Z,4.78
2018-12-20T20:26:13.464Z,5.05
2018-12-20T20:28:41.998Z,5.08
2018-12-20T20:31:09.667Z,4.70
2018-12-20T20:33:37.258Z,5.03
2018-12-20T20:36:05.019Z,4.30
2018-12-20T20:38:32.512Z,4.65
2018-12-20T20:41:00.985Z,4.40
2018-12-20T20:43:28.470Z,5.03
2018-12-20T20:45:57.092Z,4.53
2018-12-20T20:48:24.649Z,5.42
2018-12-20T20:50:52.174Z,5.15
2018-12-20T20:53:19.666Z,4.30
2018-12-20T20:55:47.258Z,4.53
2018-12-20T20:58:14.790Z,5.67
2018-12-20T21:00:43.504Z,5.47
2018-12-20T21:03:11.161Z,4.58
2018-12-20T21:05:39.354Z,4.42
2018-12-20T21:08:07.167Z,4.60
2018-12-20T21:10:34.851Z,5.30
2018-12-20T21:13:02.459Z,5.20
2018-12-20T21:15:29.994Z,5.25
2018-12-20T21:17:57.500Z,5.33
2018-12-20T21:20:30.644Z,4.97
2018-12-20T21:22:55.453Z,4.80
2018-12-20T21:25:22.963Z,4.60
2018-12-20T21:27:50.935Z,4.30
2018-12-20T21:30:18.594Z,4.20
2018-12-20T21:32:48.870Z,3.55
2018-12-20T21:35:19.374Z,3.80
2018-12-20T21:37:46.936Z,4.33
2018-12-20T21:40:15.709Z,4.37
2018-12-20T21:42:43.311Z,4.15
2018-12-20T21:45:10.958Z,4.10
2018-12-20T21:47:38.735Z,4.05
2018-12-20T21:50:07.815Z,4.08
2018-12-20T21:52:35.382Z,4.22
2018-12-20T21:55:02.943Z,4.78
2018-12-20T21:57:30.492Z,5.00
2018-12-20T22:00:01.339Z,4.50
2018-12-20T22:02:27.627Z,4.70
2018-12-20T22:04:55.129Z,4.22
2018-12-20T22:07:23.350Z,5.10
2018-12-20T22:09:50.906Z,4.58
2018-12-20T22:12:18.429Z,3.65
2018-12-20T22:14:45.996Z,4.85
2018-12-20T22:17:13.524Z,4.42
2018-12-20T22:19:41.102Z,4.58
2018-12-20T22:22:08.697Z,3.90
2018-12-20T22:24:36.244Z,4.28
2018-12-20T22:27:03.762Z,4.40
2018-12-20T22:29:31.308Z,3.90
2018-12-20T22:31:58.791Z,4.90
2018-12-20T22:34:26.437Z,4.00
2018-12-20T22:36:54.029Z,3.77
2018-12-20T22:39:21.575Z,3.95
2018-12-20T22:41:49.152Z,4.65
2018-12-20T22:44:16.653Z,4.45
2018-12-20T22:46:44.212Z,5.15
2018-12-20T22:49:11.706Z,5.20
2018-12-20T22:51:39.351Z,5.00
2018-12-20T22:54:06.909Z,4.12
2018-12-20T22:56:34.433Z,4.25
2018-12-20T22:59:01.997Z,4.25
2018-12-20T23:01:29.538Z,4.10
2018-12-20T23:03:57.052Z,4.80
2018-12-20T23:06:24.576Z,3.90
2018-12-20T23:08:52.204Z,5.40
2018-12-20T23:11:19.822Z,3.98
2018-12-20T23:13:47.371Z,4.08
2018-12-20T23:16:14.912Z,3.77
2018-12-20T23:18:42.908Z,3.37
2018-12-20T23:21:10.483Z,4.22
2018-12-20T23:23:37.971Z,4.17
2018-12-20T23:26:05.487Z,3.75
2018-12-20T23:28:33.016Z,4.08
2018-12-20T23:31:00.747Z,4.80
2018-12-20T23:33:28.335Z,3.87
2018-12-20T23:35:55.873Z,4.03
2018-12-20T23:38:23.534Z,3.45
2018-12-20T23:40:51.098Z,4.10
2018-12-20T23:43:18.731Z,4.35
2018-12-20T23:45:46.335Z,3.70
2018-12-20T23:48:13.822Z,3.70
2018-12-20T23:50:41.335Z,3.77
2018-12-20T23:53:09.009Z,5.15
2018-12-20T23:55:36.578Z,4.33
2018-12-20T23:58:04.148Z,5.47
